sensor_id;sensor_type;location;lat;lon;timestamp;temperature;humidity
30594;DHT22;33199;47.590;8.300;2022-11-25T00:00:41;10.80;71.90
30594;DHT22;33199;47.590;8.300;2022-11-25T00:03:07;10.90;72.00
30594;DHT22;33199;47.590;8.300;2022-11-25T00:05:32;10.90;72.00
30594;DHT22;33199;47.590;8.300;2022-11-25T00:07:58;10.90;72.00
30594;DHT22;33199;47.590;8.300;2022-11-25T00:10:23;10.90;72.00
30594;DHT22;33199;47.590;8.300;2022-11-25T00:12:49;10.90;72.00
30594;DHT22;33199;47.590;8.300;2022-11-25T00:15:14;10.90;72.00
30594;DHT22;33199;47.590;8.300;2022-11-25T00:17:40;10.90;72.00
30594;DHT22;33199;47.590;8.300;2022-11-25T00:20:06;10.80;71.90
30594;DHT22;33199;47.590;8.300;2022-11-25T00:22:31;10.90;72.00
30594;DHT22;33199;47.590;8.300;2022-11-25T00:24:57;10.90;72.10
30594;DHT22;33199;47.590;8.300;2022-11-25T00:27:22;10.90;72.00
30594;DHT22;33199;47.590;8.300;2022-11-25T00:29:48;10.90;72.00
30594;DHT22;33199;47.590;8.300;2022-11-25T00:32:13;10.90;72.00
30594;DHT22;33199;47.590;8.300;2022-11-25T00:34:38;10.90;71.90
30594;DHT22;33199;47.590;8.300;2022-11-25T00:37:04;10.90;71.90
30594;DHT22;33199;47.590;8.300;2022-11-25T00:39:29;10.90;71.90
30594;DHT22;33199;47.590;8.300;2022-11-25T00:41:55;10.90;71.90
30594;DHT22;33199;47.590;8.300;2022-11-25T00:44:39;10.90;72.00
30594;DHT22;33199;47.590;8.300;2022-11-25T00:47:14;10.90;72.00
30594;DHT22;33199;47.590;8.300;2022-11-25T00:49:41;10.90;72.00
30594;DHT22;33199;47.590;8.300;2022-11-25T00:52:07;10.90;72.00
30594;DHT22;33199;47.590;8.300;2022-11-25T00:54:33;10.80;71.90
30594;DHT22;33199;47.590;8.300;2022-11-25T00:56:59;10.90;72.00
30594;DHT22;33199;47.590;8.300;2022-11-25T00:59:24;10.90;72.00
30594;DHT22;33199;47.590;8.300;2022-11-25T01:01:50;10.90;71.90
30594;DHT22;33199;47.590;8.300;2022-11-25T01:04:16;10.90;72.00
30594;DHT22;33199;47.590;8.300;2022-11-25T01:06:41;10.90;72.00
30594;DHT22;33199;47.590;8.300;2022-11-25T01:09:07;10.90;72.00
30594;DHT22;33199;47.590;8.300;2022-11-25T01:11:33;10.90;72.00
30594;DHT22;33199;47.590;8.300;2022-11-25T01:13:59;10.90;72.00
30594;DHT22;33199;47.590;8.300;2022-11-25T01:16:24;10.90;72.10
30594;DHT22;33199;47.590;8.300;2022-11-25T01:18:50;10.90;72.00
30594;DHT22;33199;47.590;8.300;2022-11-25T01:21:23;10.90;72.00
30594;DHT22;33199;47.590;8.300;2022-11-25T01:23:49;10.90;72.00
30594;DHT22;33199;47.590;8.300;2022-11-25T01:26:16;10.90;72.00
30594;DHT22;33199;47.590;8.300;2022-11-25T01:28:42;10.90;72.00
30594;DHT22;33199;47.590;8.300;2022-11-25T01:31:08;10.90;72.00
30594;DHT22;33199;47.590;8.300;2022-11-25T01:33:34;10.90;72.00
30594;DHT22;33199;47.590;8.300;2022-11-25T01:36:00;10.90;72.00
30594;DHT22;33199;47.590;8.300;2022-11-25T01:38:27;10.90;72.00
30594;DHT22;33199;47.590;8.300;2022-11-25T01:40:52;10.90;72.80
30594;DHT22;33199;47.590;8.300;2022-11-25T01:43:18;10.90;72.00
30594;DHT22;33199;47.590;8.300;2022-11-25T01:45:43;10.90;72.00
30594;DHT22;33199;47.590;8.300;2022-11-25T01:48:32;10.90;72.00
30594;DHT22;33199;47.590;8.300;2022-11-25T01:50:54;10.90;72.00
30594;DHT22;33199;47.590;8.300;2022-11-25T01:53:20;10.90;72.00
30594;DHT22;33199;47.590;8.300;2022-11-25T01:55:51;10.90;72.10
30594;DHT22;33199;47.590;8.300;2022-11-25T01:58:20;10.90;72.00
30594;DHT22;33199;47.590;8.300;2022-11-25T02:00:46;10.90;72.00
30594;DHT22;33199;47.590;8.300;2022-11-25T02:03:23;10.90;72.00
30594;DHT22;33199;47.590;8.300;2022-11-25T02:06:02;10.90;72.00
30594;DHT22;33199;47.590;8.300;2022-11-25T02:08:29;10.90;72.10
30594;DHT22;33199;47.590;8.300;2022-11-25T02:10:54;10.90;72.10
30594;DHT22;33199;47.590;8.300;2022-11-25T02:13:20;10.90;72.00
30594;DHT22;33199;47.590;8.300;2022-11-25T02:15:47;10.90;72.10
30594;DHT22;33199;47.590;8.300;2022-11-25T02:18:12;10.90;72.00
30594;DHT22;33199;47.590;8.300;2022-11-25T02:20:38;10.90;72.10
30594;DHT22;33199;47.590;8.300;2022-11-25T02:25:50;10.90;72.10
30594;DHT22;33199;47.590;8.300;2022-11-25T02:30:42;10.90;72.10
30594;DHT22;33199;47.590;8.300;2022-11-25T02:33:07;10.90;72.20
30594;DHT22;33199;47.590;8.300;2022-11-25T02:35:34;10.90;72.10
30594;DHT22;33199;47.590;8.300;2022-11-25T02:38:18;10.90;72.20
30594;DHT22;33199;47.590;8.300;2022-11-25T02:40:48;10.90;72.10
30594;DHT22;33199;47.590;8.300;2022-11-25T02:43:15;10.90;72.00
30594;DHT22;33199;47.590;8.300;2022-11-25T02:48:06;10.90;72.00
30594;DHT22;33199;47.590;8.300;2022-11-25T02:50:32;10.90;72.40
30594;DHT22;33199;47.590;8.300;2022-11-25T02:52:57;10.90;72.00
30594;DHT22;33199;47.590;8.300;2022-11-25T02:55:23;10.90;72.10
30594;DHT22;33199;47.590;8.300;2022-11-25T02:57:48;10.90;72.10
30594;DHT22;33199;47.590;8.300;2022-11-25T03:00:14;10.90;72.10
30594;DHT22;33199;47.590;8.300;2022-11-25T03:02:39;10.90;72.00
30594;DHT22;33199;47.590;8.300;2022-11-25T03:05:05;10.90;72.10
30594;DHT22;33199;47.590;8.300;2022-11-25T03:07:30;10.90;72.10
30594;DHT22;33199;47.590;8.300;2022-11-25T03:09:56;10.90;72.10
30594;DHT22;33199;47.590;8.300;2022-11-25T03:12:21;10.90;72.10
30594;DHT22;33199;47.590;8.300;2022-11-25T03:14:47;10.90;72.00
30594;DHT22;33199;47.590;8.300;2022-11-25T03:17:12;10.90;72.00
30594;DHT22;33199;47.590;8.300;2022-11-25T03:19:38;10.90;72.10
30594;DHT22;33199;47.590;8.300;2022-11-25T03:22:04;10.90;72.10
30594;DHT22;33199;47.590;8.300;2022-11-25T03:24:29;10.90;72.10
30594;DHT22;33199;47.590;8.300;2022-11-25T03:26:55;10.90;72.10
30594;DHT22;33199;47.590;8.300;2022-11-25T03:29:20;10.90;72.10
30594;DHT22;33199;47.590;8.300;2022-11-25T03:31:45;10.90;72.10
30594;DHT22;33199;47.590;8.300;2022-11-25T03:34:11;10.90;72.10
30594;DHT22;33199;47.590;8.300;2022-11-25T03:36:37;10.90;72.20
30594;DHT22;33199;47.590;8.300;2022-11-25T03:39:02;10.90;72.20
30594;DHT22;33199;47.590;8.300;2022-11-25T03:41:28;10.90;72.10
30594;DHT22;33199;47.590;8.300;2022-11-25T03:43:53;10.90;72.00
30594;DHT22;33199;47.590;8.300;2022-11-25T03:46:19;10.90;72.10
30594;DHT22;33199;47.590;8.300;2022-11-25T03:48:44;10.90;72.00
30594;DHT22;33199;47.590;8.300;2022-11-25T03:51:09;10.90;72.00
30594;DHT22;33199;47.590;8.300;2022-11-25T03:53:35;10.90;72.00
30594;DHT22;33199;47.590;8.300;2022-11-25T03:56:00;10.90;72.10
30594;DHT22;33199;47.590;8.300;2022-11-25T03:58:26;10.90;72.10
30594;DHT22;33199;47.590;8.300;2022-11-25T04:00:51;10.90;72.10
30594;DHT22;33199;47.590;8.300;2022-11-25T04:03:17;10.90;72.10
30594;DHT22;33199;47.590;8.300;2022-11-25T04:05:42;10.90;72.00
30594;DHT22;33199;47.590;8.300;2022-11-25T04:08:08;10.90;72.10
30594;DHT22;33199;47.590;8.300;2022-11-25T04:10:33;10.90;72.10
30594;DHT22;33199;47.590;8.300;2022-11-25T04:12:59;10.90;72.10
30594;DHT22;33199;47.590;8.300;2022-11-25T04:15:25;10.90;72.10
30594;DHT22;33199;47.590;8.300;2022-11-25T04:17:51;10.90;72.20
30594;DHT22;33199;47.590;8.300;2022-11-25T04:20:16;10.90;72.20
30594;DHT22;33199;47.590;8.300;2022-11-25T04:22:42;10.90;72.20
30594;DHT22;33199;47.590;8.300;2022-11-25T04:25:09;10.90;72.20
30594;DHT22;33199;47.590;8.300;2022-11-25T04:27:34;10.90;72.20
30594;DHT22;33199;47.590;8.300;2022-11-25T04:30:00;10.90;72.30
30594;DHT22;33199;47.590;8.300;2022-11-25T04:32:25;10.90;72.10
30594;DHT22;33199;47.590;8.300;2022-11-25T04:34:51;10.90;72.10
30594;DHT22;33199;47.590;8.300;2022-11-25T04:37:16;10.90;72.10
30594;DHT22;33199;47.590;8.300;2022-11-25T04:39:42;10.90;72.10
30594;DHT22;33199;47.590;8.300;2022-11-25T04:42:07;10.90;72.10
30594;DHT22;33199;47.590;8.300;2022-11-25T04:44:51;10.90;72.20
30594;DHT22;33199;47.590;8.300;2022-11-25T04:47:17;10.90;72.20
30594;DHT22;33199;47.590;8.300;2022-11-25T04:49:42;10.90;72.20
30594;DHT22;33199;47.590;8.300;2022-11-25T04:52:07;10.90;72.20
30594;DHT22;33199;47.590;8.300;2022-11-25T04:54:33;10.90;72.20
30594;DHT22;33199;47.590;8.300;2022-11-25T04:56:58;10.90;72.20
30594;DHT22;33199;47.590;8.300;2022-11-25T04:59:24;10.90;72.20
30594;DHT22;33199;47.590;8.300;2022-11-25T05:04:37;10.90;72.20
30594;DHT22;33199;47.590;8.300;2022-11-25T05:07:02;10.90;72.20
30594;DHT22;33199;47.590;8.300;2022-11-25T05:09:28;10.90;72.20
30594;DHT22;33199;47.590;8.300;2022-11-25T05:11:53;10.90;72.20
30594;DHT22;33199;47.590;8.300;2022-11-25T05:14:18;10.90;72.30
30594;DHT22;33199;47.590;8.300;2022-11-25T05:16:44;10.90;72.30
30594;DHT22;33199;47.590;8.300;2022-11-25T05:19:09;10.90;72.20
30594;DHT22;33199;47.590;8.300;2022-11-25T05:21:35;10.90;72.10
30594;DHT22;33199;47.590;8.300;2022-11-25T05:24:00;10.90;72.20
30594;DHT22;33199;47.590;8.300;2022-11-25T05:26:26;10.90;72.30
30594;DHT22;33199;47.590;8.300;2022-11-25T05:28:51;10.90;72.20
30594;DHT22;33199;47.590;8.300;2022-11-25T05:31:17;10.90;72.20
30594;DHT22;33199;47.590;8.300;2022-11-25T05:33:42;10.90;72.20
30594;DHT22;33199;47.590;8.300;2022-11-25T05:36:08;10.90;72.20
30594;DHT22;33199;47.590;8.300;2022-11-25T05:38:34;10.90;72.30
30594;DHT22;33199;47.590;8.300;2022-11-25T05:41:00;10.80;69.50
30594;DHT22;33199;47.590;8.300;2022-11-25T05:43:26;10.60;68.20
30594;DHT22;33199;47.590;8.300;2022-11-25T05:45:51;10.40;68.30
30594;DHT22;33199;47.590;8.300;2022-11-25T05:48:16;10.20;68.30
30594;DHT22;33199;47.590;8.300;2022-11-25T05:50:42;10.00;68.90
30594;DHT22;33199;47.590;8.300;2022-11-25T05:53:08;9.90;69.40
30594;DHT22;33199;47.590;8.300;2022-11-25T05:55:33;9.70;69.80
30594;DHT22;33199;47.590;8.300;2022-11-25T05:57:59;9.60;70.40
30594;DHT22;33199;47.590;8.300;2022-11-25T06:00:24;9.60;71.20
30594;DHT22;33199;47.590;8.300;2022-11-25T06:02:50;9.60;71.30
30594;DHT22;33199;47.590;8.300;2022-11-25T06:05:15;9.70;71.50
30594;DHT22;33199;47.590;8.300;2022-11-25T06:07:41;9.80;71.90
30594;DHT22;33199;47.590;8.300;2022-11-25T06:10:06;9.90;72.00
30594;DHT22;33199;47.590;8.300;2022-11-25T06:12:32;9.90;71.50
30594;DHT22;33199;47.590;8.300;2022-11-25T06:14:57;10.00;71.50
30594;DHT22;33199;47.590;8.300;2022-11-25T06:17:23;10.00;71.20
30594;DHT22;33199;47.590;8.300;2022-11-25T06:19:48;10.10;71.20
30594;DHT22;33199;47.590;8.300;2022-11-25T06:22:14;10.20;71.10
30594;DHT22;33199;47.590;8.300;2022-11-25T06:24:39;10.20;70.90
30594;DHT22;33199;47.590;8.300;2022-11-25T06:27:05;10.20;70.90
30594;DHT22;33199;47.590;8.300;2022-11-25T06:29:30;10.30;70.90
30594;DHT22;33199;47.590;8.300;2022-11-25T06:31:56;10.30;70.80
30594;DHT22;33199;47.590;8.300;2022-11-25T06:34:21;10.30;71.50
30594;DHT22;33199;47.590;8.300;2022-11-25T06:36:50;10.30;70.70
30594;DHT22;33199;47.590;8.300;2022-11-25T06:39:15;10.40;70.80
30594;DHT22;33199;47.590;8.300;2022-11-25T06:41:41;10.30;70.70
30594;DHT22;33199;47.590;8.300;2022-11-25T06:44:06;10.40;70.80
30594;DHT22;33199;47.590;8.300;2022-11-25T06:46:32;10.40;70.80
30594;DHT22;33199;47.590;8.300;2022-11-25T06:48:58;10.40;70.80
30594;DHT22;33199;47.590;8.300;2022-11-25T06:51:24;10.40;70.80
30594;DHT22;33199;47.590;8.300;2022-11-25T06:53:50;10.40;70.80
30594;DHT22;33199;47.590;8.300;2022-11-25T06:56:16;10.40;70.80
30594;DHT22;33199;47.590;8.300;2022-11-25T06:58:42;10.40;70.80
30594;DHT22;33199;47.590;8.300;2022-11-25T07:01:21;10.40;70.80
30594;DHT22;33199;47.590;8.300;2022-11-25T07:03:48;10.40;70.80
30594;DHT22;33199;47.590;8.300;2022-11-25T07:06:14;10.50;70.80
30594;DHT22;33199;47.590;8.300;2022-11-25T07:08:40;10.50;71.10
30594;DHT22;33199;47.590;8.300;2022-11-25T07:11:07;10.50;70.80
30594;DHT22;33199;47.590;8.300;2022-11-25T07:13:32;10.50;70.90
30594;DHT22;33199;47.590;8.300;2022-11-25T07:16:02;10.50;70.80
30594;DHT22;33199;47.590;8.300;2022-11-25T07:18:28;10.50;70.90
30594;DHT22;33199;47.590;8.300;2022-11-25T07:20:54;10.50;71.00
30594;DHT22;33199;47.590;8.300;2022-11-25T07:23:19;10.50;70.90
30594;DHT22;33199;47.590;8.300;2022-11-25T07:25:45;10.50;70.90
30594;DHT22;33199;47.590;8.300;2022-11-25T07:28:10;10.50;70.90
30594;DHT22;33199;47.590;8.300;2022-11-25T07:30:35;10.50;70.90
30594;DHT22;33199;47.590;8.300;2022-11-25T07:33:01;10.50;70.90
30594;DHT22;33199;47.590;8.300;2022-11-25T07:35:26;10.50;71.00
30594;DHT22;33199;47.590;8.300;2022-11-25T07:37:52;10.50;70.90
30594;DHT22;33199;47.590;8.300;2022-11-25T07:40:17;10.60;71.00
30594;DHT22;33199;47.590;8.300;2022-11-25T07:42:43;10.50;70.80
30594;DHT22;33199;47.590;8.300;2022-11-25T07:45:08;10.60;70.90
30594;DHT22;33199;47.590;8.300;2022-11-25T07:47:34;10.60;70.90
30594;DHT22;33199;47.590;8.300;2022-11-25T07:49:59;10.60;71.00
30594;DHT22;33199;47.590;8.300;2022-11-25T07:52:25;10.60;71.00
30594;DHT22;33199;47.590;8.300;2022-11-25T07:54:51;10.60;71.00
30594;DHT22;33199;47.590;8.300;2022-11-25T07:57:17;10.50;70.90
30594;DHT22;33199;47.590;8.300;2022-11-25T07:59:42;10.60;71.00
30594;DHT22;33199;47.590;8.300;2022-11-25T08:02:08;10.60;71.00
30594;DHT22;33199;47.590;8.300;2022-11-25T08:04:33;10.60;70.90
30594;DHT22;33199;47.590;8.300;2022-11-25T08:07:00;10.60;70.80
30594;DHT22;33199;47.590;8.300;2022-11-25T08:09:25;10.60;70.80
30594;DHT22;33199;47.590;8.300;2022-11-25T08:11:51;10.60;70.90
30594;DHT22;33199;47.590;8.300;2022-11-25T08:14:16;10.60;70.90
30594;DHT22;33199;47.590;8.300;2022-11-25T08:16:42;10.60;70.90
30594;DHT22;33199;47.590;8.300;2022-11-25T08:19:10;10.60;71.00
30594;DHT22;33199;47.590;8.300;2022-11-25T08:21:35;10.60;70.90
30594;DHT22;33199;47.590;8.300;2022-11-25T08:24:01;10.60;71.00
30594;DHT22;33199;47.590;8.300;2022-11-25T08:26:28;10.60;71.00
30594;DHT22;33199;47.590;8.300;2022-11-25T08:29:12;10.60;70.90
30594;DHT22;33199;47.590;8.300;2022-11-25T08:31:38;10.60;70.90
30594;DHT22;33199;47.590;8.300;2022-11-25T08:34:04;10.60;71.00
30594;DHT22;33199;47.590;8.300;2022-11-25T08:36:30;10.60;71.00
30594;DHT22;33199;47.590;8.300;2022-11-25T08:38:57;10.60;71.00
30594;DHT22;33199;47.590;8.300;2022-11-25T08:41:24;10.60;71.00
30594;DHT22;33199;47.590;8.300;2022-11-25T08:43:50;10.60;71.80
30594;DHT22;33199;47.590;8.300;2022-11-25T08:46:17;10.60;70.90
30594;DHT22;33199;47.590;8.300;2022-11-25T08:48:43;10.60;70.90
30594;DHT22;33199;47.590;8.300;2022-11-25T08:51:10;10.60;70.90
30594;DHT22;33199;47.590;8.300;2022-11-25T08:53:36;10.70;71.10
30594;DHT22;33199;47.590;8.300;2022-11-25T08:56:02;10.60;71.00
30594;DHT22;33199;47.590;8.300;2022-11-25T08:58:28;10.60;71.00
30594;DHT22;33199;47.590;8.300;2022-11-25T09:00:53;10.60;71.00
30594;DHT22;33199;47.590;8.300;2022-11-25T09:03:19;10.60;71.00
30594;DHT22;33199;47.590;8.300;2022-11-25T09:05:44;10.60;71.00
30594;DHT22;33199;47.590;8.300;2022-11-25T09:08:10;10.60;71.00
30594;DHT22;33199;47.590;8.300;2022-11-25T09:10:36;10.60;71.00
30594;DHT22;33199;47.590;8.300;2022-11-25T09:13:02;10.60;71.00
30594;DHT22;33199;47.590;8.300;2022-11-25T09:15:27;10.60;71.00
30594;DHT22;33199;47.590;8.300;2022-11-25T09:17:59;10.60;71.00
30594;DHT22;33199;47.590;8.300;2022-11-25T09:20:26;10.60;71.00
30594;DHT22;33199;47.590;8.300;2022-11-25T09:22:52;10.70;71.20
30594;DHT22;33199;47.590;8.300;2022-11-25T09:25:17;10.60;71.00
30594;DHT22;33199;47.590;8.300;2022-11-25T09:27:43;10.60;71.00
30594;DHT22;33199;47.590;8.300;2022-11-25T09:30:08;10.60;71.00
30594;DHT22;33199;47.590;8.300;2022-11-25T09:32:34;10.60;71.00
30594;DHT22;33199;47.590;8.300;2022-11-25T09:34:59;10.70;71.20
30594;DHT22;33199;47.590;8.300;2022-11-25T09:37:25;10.70;71.10
30594;DHT22;33199;47.590;8.300;2022-11-25T09:39:51;10.60;71.00
30594;DHT22;33199;47.590;8.300;2022-11-25T09:55:34;10.70;71.20
30594;DHT22;33199;47.590;8.300;2022-11-25T10:00:41;10.70;71.20
30594;DHT22;33199;47.590;8.300;2022-11-25T10:05:46;10.70;71.20
30594;DHT22;33199;47.590;8.300;2022-11-25T10:08:18;10.60;71.10
30594;DHT22;33199;47.590;8.300;2022-11-25T10:10:46;10.70;71.20
30594;DHT22;33199;47.590;8.300;2022-11-25T10:13:16;10.70;71.20
30594;DHT22;33199;47.590;8.300;2022-11-25T10:15:43;10.70;71.20
30594;DHT22;33199;47.590;8.300;2022-11-25T10:18:12;10.70;71.20
30594;DHT22;33199;47.590;8.300;2022-11-25T10:20:41;10.70;71.20
30594;DHT22;33199;47.590;8.300;2022-11-25T10:23:11;10.70;71.20
30594;DHT22;33199;47.590;8.300;2022-11-25T10:25:41;10.70;71.10
30594;DHT22;33199;47.590;8.300;2022-11-25T10:28:17;10.70;71.10
30594;DHT22;33199;47.590;8.300;2022-11-25T10:30:45;10.70;71.10
30594;DHT22;33199;47.590;8.300;2022-11-25T10:33:21;10.70;71.10
30594;DHT22;33199;47.590;8.300;2022-11-25T10:35:52;10.70;71.10
30594;DHT22;33199;47.590;8.300;2022-11-25T10:38:22;10.70;71.10
30594;DHT22;33199;47.590;8.300;2022-11-25T10:40:49;10.70;71.20
30594;DHT22;33199;47.590;8.300;2022-11-25T10:43:16;10.70;71.20
30594;DHT22;33199;47.590;8.300;2022-11-25T10:45:45;10.70;71.20
30594;DHT22;33199;47.590;8.300;2022-11-25T10:51:02;10.70;71.20
30594;DHT22;33199;47.590;8.300;2022-11-25T10:53:27;10.70;71.00
30594;DHT22;33199;47.590;8.300;2022-11-25T10:58:27;10.40;71.70
30594;DHT22;33199;47.590;8.300;2022-11-25T11:01:06;10.40;72.20
30594;DHT22;33199;47.590;8.300;2022-11-25T11:03:36;10.30;72.50
30594;DHT22;33199;47.590;8.300;2022-11-25T11:06:02;10.30;72.50
30594;DHT22;33199;47.590;8.300;2022-11-25T11:08:35;10.40;72.50
30594;DHT22;33199;47.590;8.300;2022-11-25T11:11:08;10.40;72.40
30594;DHT22;33199;47.590;8.300;2022-11-25T11:13:35;10.40;72.30
30594;DHT22;33199;47.590;8.300;2022-11-25T11:16:01;10.50;72.20
30594;DHT22;33199;47.590;8.300;2022-11-25T11:18:28;10.50;72.00
30594;DHT22;33199;47.590;8.300;2022-11-25T11:20:58;10.50;72.00
30594;DHT22;33199;47.590;8.300;2022-11-25T11:23:24;10.60;71.90
30594;DHT22;33199;47.590;8.300;2022-11-25T11:25:54;10.60;71.80
30594;DHT22;33199;47.590;8.300;2022-11-25T11:31:00;10.60;71.70
30594;DHT22;33199;47.590;8.300;2022-11-25T11:33:36;10.60;71.60
30594;DHT22;33199;47.590;8.300;2022-11-25T11:41:35;10.70;71.50
30594;DHT22;33199;47.590;8.300;2022-11-25T11:44:22;10.70;71.50
30594;DHT22;33199;47.590;8.300;2022-11-25T11:52:02;10.70;71.50
30594;DHT22;33199;47.590;8.300;2022-11-25T11:56:56;10.70;71.40
30594;DHT22;33199;47.590;8.300;2022-11-25T12:04:50;10.70;71.40
30594;DHT22;33199;47.590;8.300;2022-11-25T12:07:21;10.70;71.40
30594;DHT22;33199;47.590;8.300;2022-11-25T12:09:52;10.70;71.40
30594;DHT22;33199;47.590;8.300;2022-11-25T12:12:29;10.70;71.40
30594;DHT22;33199;47.590;8.300;2022-11-25T12:15:00;10.70;71.40
30594;DHT22;33199;47.590;8.300;2022-11-25T12:17:29;10.80;71.40
30594;DHT22;33199;47.590;8.300;2022-11-25T12:20:04;10.70;71.40
30594;DHT22;33199;47.590;8.300;2022-11-25T12:22:33;10.70;71.40
30594;DHT22;33199;47.590;8.300;2022-11-25T12:25:03;10.70;71.50
30594;DHT22;33199;47.590;8.300;2022-11-25T12:27:35;10.70;71.40
30594;DHT22;33199;47.590;8.300;2022-11-25T12:30:03;10.80;71.40
30594;DHT22;33199;47.590;8.300;2022-11-25T12:35:05;10.80;71.40
30594;DHT22;33199;47.590;8.300;2022-11-25T12:40:06;10.80;71.50
30594;DHT22;33199;47.590;8.300;2022-11-25T12:42:35;10.80;71.40
30594;DHT22;33199;47.590;8.300;2022-11-25T12:45:07;10.80;71.50
30594;DHT22;33199;47.590;8.300;2022-11-25T12:47:34;10.80;71.40
30594;DHT22;33199;47.590;8.300;2022-11-25T12:49:59;10.80;71.40
30594;DHT22;33199;47.590;8.300;2022-11-25T13:00:16;10.80;71.50
30594;DHT22;33199;47.590;8.300;2022-11-25T13:02:45;10.80;71.40
30594;DHT22;33199;47.590;8.300;2022-11-25T13:10:25;10.80;71.40
30594;DHT22;33199;47.590;8.300;2022-11-25T13:15:30;10.80;71.40
30594;DHT22;33199;47.590;8.300;2022-11-25T13:18:02;10.80;71.50
30594;DHT22;33199;47.590;8.300;2022-11-25T13:23:01;10.80;71.40
30594;DHT22;33199;47.590;8.300;2022-11-25T13:25:27;10.80;71.50
30594;DHT22;33199;47.590;8.300;2022-11-25T13:35:35;10.80;71.40
30594;DHT22;33199;47.590;8.300;2022-11-25T13:38:05;10.90;71.50
30594;DHT22;33199;47.590;8.300;2022-11-25T13:40:37;10.90;71.50
30594;DHT22;33199;47.590;8.300;2022-11-25T13:43:03;10.90;71.50
30594;DHT22;33199;47.590;8.300;2022-11-25T13:45:41;10.90;71.60
30594;DHT22;33199;47.590;8.300;2022-11-25T13:48:12;10.90;71.60
30594;DHT22;33199;47.590;8.300;2022-11-25T13:50:39;10.90;71.70
30594;DHT22;33199;47.590;8.300;2022-11-25T13:53:06;10.90;71.60
30594;DHT22;33199;47.590;8.300;2022-11-25T13:55:34;10.90;71.70
30594;DHT22;33199;47.590;8.300;2022-11-25T14:00:58;10.90;71.60
30594;DHT22;33199;47.590;8.300;2022-11-25T14:18:56;10.90;71.60
30594;DHT22;33199;47.590;8.300;2022-11-25T14:21:33;10.90;71.60
30594;DHT22;33199;47.590;8.300;2022-11-25T14:24:20;10.90;71.60
30594;DHT22;33199;47.590;8.300;2022-11-25T14:26:50;10.90;71.60
30594;DHT22;33199;47.590;8.300;2022-11-25T14:29:29;10.90;71.60
30594;DHT22;33199;47.590;8.300;2022-11-25T14:32:01;10.90;71.60
30594;DHT22;33199;47.590;8.300;2022-11-25T14:34:29;10.90;71.60
30594;DHT22;33199;47.590;8.300;2022-11-25T14:36:58;10.90;71.60
30594;DHT22;33199;47.590;8.300;2022-11-25T14:39:32;10.90;71.70
30594;DHT22;33199;47.590;8.300;2022-11-25T14:42:09;10.90;71.70
30594;DHT22;33199;47.590;8.300;2022-11-25T14:44:43;10.90;71.60
30594;DHT22;33199;47.590;8.300;2022-11-25T14:47:09;10.90;71.70
30594;DHT22;33199;47.590;8.300;2022-11-25T14:49:45;10.90;71.60
30594;DHT22;33199;47.590;8.300;2022-11-25T14:52:18;10.90;71.70
30594;DHT22;33199;47.590;8.300;2022-11-25T14:54:44;11.00;71.70
30594;DHT22;33199;47.590;8.300;2022-11-25T14:57:10;11.00;71.70
30594;DHT22;33199;47.590;8.300;2022-11-25T14:59:36;11.00;71.70
30594;DHT22;33199;47.590;8.300;2022-11-25T15:02:02;11.00;71.70
30594;DHT22;33199;47.590;8.300;2022-11-25T15:04:30;11.00;71.70
30594;DHT22;33199;47.590;8.300;2022-11-25T15:06:56;11.00;71.70
30594;DHT22;33199;47.590;8.300;2022-11-25T15:09:35;11.00;71.80
30594;DHT22;33199;47.590;8.300;2022-11-25T15:12:02;11.00;71.70
30594;DHT22;33199;47.590;8.300;2022-11-25T15:14:29;11.00;71.70
30594;DHT22;33199;47.590;8.300;2022-11-25T15:16:56;11.00;71.70
30594;DHT22;33199;47.590;8.300;2022-11-25T15:19:23;11.00;71.70
30594;DHT22;33199;47.590;8.300;2022-11-25T15:21:59;11.00;71.70
30594;DHT22;33199;47.590;8.300;2022-11-25T15:26:56;11.00;71.70
30594;DHT22;33199;47.590;8.300;2022-11-25T15:29:22;11.00;71.80
30594;DHT22;33199;47.590;8.300;2022-11-25T15:31:48;11.00;71.70
30594;DHT22;33199;47.590;8.300;2022-11-25T15:34:14;11.00;71.70
30594;DHT22;33199;47.590;8.300;2022-11-25T15:36:41;11.00;71.70
30594;DHT22;33199;47.590;8.300;2022-11-25T15:39:22;11.00;71.70
30594;DHT22;33199;47.590;8.300;2022-11-25T15:44:33;11.00;71.70
30594;DHT22;33199;47.590;8.300;2022-11-25T15:47:00;11.00;73.40
30594;DHT22;33199;47.590;8.300;2022-11-25T15:49:27;10.90;74.50
30594;DHT22;33199;47.590;8.300;2022-11-25T15:51:54;10.80;74.60
30594;DHT22;33199;47.590;8.300;2022-11-25T15:54:22;10.70;74.80
30594;DHT22;33199;47.590;8.300;2022-11-25T15:56:50;10.60;75.20
30594;DHT22;33199;47.590;8.300;2022-11-25T16:02:00;10.50;76.10
30594;DHT22;33199;47.590;8.300;2022-11-25T16:04:26;10.50;76.30
30594;DHT22;33199;47.590;8.300;2022-11-25T16:06:55;10.50;76.20
30594;DHT22;33199;47.590;8.300;2022-11-25T16:09:21;10.40;76.90
30594;DHT22;33199;47.590;8.300;2022-11-25T16:11:47;10.40;76.90
30594;DHT22;33199;47.590;8.300;2022-11-25T16:14:26;10.40;77.00
30594;DHT22;33199;47.590;8.300;2022-11-25T16:16:59;10.40;77.10
30594;DHT22;33199;47.590;8.300;2022-11-25T16:19:27;10.40;77.30
30594;DHT22;33199;47.590;8.300;2022-11-25T16:22:00;10.30;78.00
30594;DHT22;33199;47.590;8.300;2022-11-25T16:27:00;10.40;78.00
30594;DHT22;33199;47.590;8.300;2022-11-25T16:29:35;10.40;77.70
30594;DHT22;33199;47.590;8.300;2022-11-25T16:32:10;10.30;77.30
30594;DHT22;33199;47.590;8.300;2022-11-25T16:34:36;10.20;75.30
30594;DHT22;33199;47.590;8.300;2022-11-25T16:37:02;10.20;75.30
30594;DHT22;33199;47.590;8.300;2022-11-25T16:39:27;10.10;75.50
30594;DHT22;33199;47.590;8.300;2022-11-25T16:41:54;10.10;76.20
30594;DHT22;33199;47.590;8.300;2022-11-25T16:44:21;10.10;76.70
30594;DHT22;33199;47.590;8.300;2022-11-25T16:46:47;10.10;76.90
30594;DHT22;33199;47.590;8.300;2022-11-25T16:49:13;10.10;77.20
30594;DHT22;33199;47.590;8.300;2022-11-25T16:51:39;10.00;77.30
30594;DHT22;33199;47.590;8.300;2022-11-25T16:54:04;10.00;77.80
30594;DHT22;33199;47.590;8.300;2022-11-25T16:56:30;10.00;77.90
30594;DHT22;33199;47.590;8.300;2022-11-25T16:58:57;9.90;78.50
30594;DHT22;33199;47.590;8.300;2022-11-25T17:01:23;9.90;78.60
30594;DHT22;33199;47.590;8.300;2022-11-25T17:03:49;9.90;78.40
30594;DHT22;33199;47.590;8.300;2022-11-25T17:06:16;9.90;78.10
30594;DHT22;33199;47.590;8.300;2022-11-25T17:08:42;9.90;79.00
30594;DHT22;33199;47.590;8.300;2022-11-25T17:11:10;9.80;78.10
30594;DHT22;33199;47.590;8.300;2022-11-25T17:13:37;9.90;78.30
30594;DHT22;33199;47.590;8.300;2022-11-25T17:16:07;9.90;78.30
30594;DHT22;33199;47.590;8.300;2022-11-25T17:18:32;10.00;77.80
30594;DHT22;33199;47.590;8.300;2022-11-25T17:20:58;10.10;77.20
30594;DHT22;33199;47.590;8.300;2022-11-25T17:23:24;10.10;76.80
30594;DHT22;33199;47.590;8.300;2022-11-25T17:25:50;10.20;76.80
30594;DHT22;33199;47.590;8.300;2022-11-25T17:28:16;10.30;76.70